Lomita, California
Current Conditions -  °F | °C
As of 9:53 PM on Friday 28 Nov 2014 (Local Time) from KHHR Reporting Station
Clear Clear  
Wind Chill: 61°   Ceiling: Unl
Heat Index: 61°   Visibility: 10mi
Dew Point: 53°   Wind: 0mph
Humidity: 75%   Direction: NA
Pressure: 29.9"   Gusts: NA
Location:  33.81°N, 118.31°W
Report Text: KHHR 290553Z AUTO 00000KT 10SM CLR 16/12 A2990 RMK AO2 SLP125 T01610117 10233 20161 53002
Loading
Personal Weather Stations






























Interactive Weather Map New forecast layout! Learn more

10-Day Weather Forecast

Advertisements
Track Severe Weather on mobile